createdAt,value
2016-09-19T00:00:01.732Z,0
2016-09-19T00:01:01.710Z,0
2016-09-19T00:02:01.684Z,0
2016-09-19T00:03:01.670Z,0
2016-09-19T00:04:01.649Z,0
2016-09-19T00:05:01.626Z,0
2016-09-19T00:06:01.605Z,0
2016-09-19T00:07:01.583Z,0
2016-09-19T00:08:01.566Z,0
2016-09-19T00:09:01.534Z,0
2016-09-19T00:10:01.518Z,0
2016-09-19T00:11:01.499Z,0
2016-09-19T00:12:01.475Z,0
2016-09-19T00:13:01.446Z,0
2016-09-19T00:14:01.431Z,0
2016-09-19T00:15:01.408Z,0
2016-09-19T00:16:01.386Z,0
2016-09-19T00:17:01.360Z,0
2016-09-19T00:18:01.351Z,0
2016-09-19T00:19:01.319Z,0
2016-09-19T00:20:01.291Z,0
2016-09-19T00:21:01.274Z,0
2016-09-19T00:22:01.253Z,0
2016-09-19T00:23:01.536Z,0
2016-09-19T00:24:01.213Z,0
2016-09-19T00:25:01.204Z,0
2016-09-19T00:26:01.184Z,0
2016-09-19T00:27:01.154Z,0
2016-09-19T00:28:01.126Z,0
2016-09-19T00:29:01.105Z,0
2016-09-19T00:30:01.083Z,0
2016-09-19T00:31:01.061Z,0
2016-09-19T00:32:01.035Z,0
2016-09-19T00:33:01.016Z,0
2016-09-19T00:34:00.991Z,0
2016-09-19T00:35:00.972Z,0
2016-09-19T00:36:00.950Z,0
2016-09-19T00:37:00.927Z,0
2016-09-19T00:38:00.907Z,0
2016-09-19T00:39:00.882Z,0
2016-09-19T00:40:00.871Z,0
2016-09-19T00:41:00.833Z,0
2016-09-19T00:42:00.823Z,0
2016-09-19T00:43:00.794Z,0
2016-09-19T00:44:00.775Z,0
2016-09-19T00:45:00.751Z,0
2016-09-19T00:46:00.725Z,0
2016-09-19T00:47:00.714Z,0
2016-09-19T00:48:00.979Z,0
2016-09-19T00:49:00.663Z,0
2016-09-19T00:50:00.648Z,0
2016-09-19T00:51:00.621Z,0
2016-09-19T00:52:00.619Z,0
2016-09-19T00:53:00.573Z,0
2016-09-19T00:54:00.557Z,0
2016-09-19T00:55:00.530Z,0
2016-09-19T00:56:00.513Z,0
2016-09-19T00:57:00.492Z,0
2016-09-19T00:58:00.467Z,0
2016-09-19T00:59:00.448Z,0
2016-09-19T01:00:00.422Z,0
2016-09-19T01:01:00.403Z,0
2016-09-19T01:02:00.384Z,0
2016-09-19T01:03:00.356Z,0
2016-09-19T01:04:00.337Z,0
2016-09-19T01:05:00.312Z,0
2016-09-19T01:06:00.294Z,0
2016-09-19T01:07:00.267Z,0
2016-09-19T01:08:00.248Z,0
2016-09-19T01:09:00.224Z,0
2016-09-19T01:10:00.206Z,0
2016-09-19T01:11:00.181Z,0
2016-09-19T01:12:00.156Z,0
2016-09-19T01:13:00.139Z,0
2016-09-19T01:14:00.113Z,0
2016-09-19T01:15:00.094Z,0
2016-09-19T01:16:00.072Z,0
2016-09-19T01:17:00.047Z,0
2016-09-19T01:18:00.031Z,0
2016-09-19T01:19:00.003Z,0
2016-09-19T01:19:59.981Z,0
2016-09-19T01:20:59.977Z,0
2016-09-19T01:21:59.939Z,0
2016-09-19T01:22:59.918Z,0
2016-09-19T01:23:59.897Z,0
2016-09-19T01:24:59.874Z,0
2016-09-19T01:25:59.856Z,0
2016-09-19T01:26:59.832Z,0
2016-09-19T01:27:59.809Z,0
2016-09-19T01:28:59.785Z,0
2016-09-19T01:29:59.760Z,0
2016-09-19T01:30:59.735Z,0
2016-09-19T01:31:59.720Z,0
2016-09-19T01:32:59.695Z,0
2016-09-19T01:33:59.674Z,0
2016-09-19T01:34:59.650Z,0
2016-09-19T01:35:59.627Z,0
2016-09-19T01:36:59.624Z,0
2016-09-19T01:37:59.581Z,0
2016-09-19T01:38:59.563Z,0
2016-09-19T01:39:59.546Z,0
2016-09-19T01:40:59.517Z,0
2016-09-19T01:41:59.513Z,0
2016-09-19T01:42:59.473Z,0
2016-09-19T01:43:59.454Z,0
2016-09-19T01:44:59.434Z,0
2016-09-19T01:45:59.411Z,0
2016-09-19T01:46:59.390Z,0
2016-09-19T01:47:59.365Z,0
2016-09-19T01:48:59.343Z,0
2016-09-19T01:49:59.316Z,0
2016-09-19T01:50:59.309Z,0
2016-09-19T01:51:59.287Z,0
2016-09-19T01:52:59.258Z,0
2016-09-19T01:53:59.227Z,0
2016-09-19T01:54:59.205Z,0
2016-09-19T01:55:59.184Z,0
2016-09-19T01:56:59.161Z,0
2016-09-19T01:57:59.146Z,0
2016-09-19T01:58:59.130Z,0
2016-09-19T01:59:59.095Z,0
2016-09-19T02:00:59.091Z,0
2016-09-19T02:01:59.054Z,0
2016-09-19T02:02:59.030Z,0
2016-09-19T02:03:59.010Z,0
2016-09-19T02:04:58.985Z,0
2016-09-19T02:05:58.965Z,0
2016-09-19T02:06:58.944Z,0
2016-09-19T02:07:58.922Z,0
2016-09-19T02:08:58.898Z,0
2016-09-19T02:09:58.892Z,0
2016-09-19T02:10:58.850Z,0
2016-09-19T02:11:58.833Z,0
2016-09-19T02:12:58.814Z,0
2016-09-19T02:13:58.790Z,0
2016-09-19T02:14:58.767Z,0
2016-09-19T02:15:58.746Z,0
2016-09-19T02:16:58.736Z,0
2016-09-19T02:17:58.694Z,0
2016-09-19T02:18:58.676Z,0
2016-09-19T02:19:58.657Z,0
2016-09-19T02:20:58.632Z,0
2016-09-19T02:21:58.611Z,0
2016-09-19T02:22:58.586Z,0
2016-09-19T02:23:58.568Z,0
2016-09-19T02:24:58.564Z,0
2016-09-19T02:25:58.516Z,0
2016-09-19T02:26:58.500Z,0
2016-09-19T02:27:58.477Z,0
2016-09-19T02:28:58.455Z,0
2016-09-19T02:29:58.428Z,0
2016-09-19T02:30:58.410Z,0
2016-09-19T02:31:58.389Z,0
2016-09-19T02:32:58.363Z,0
2016-09-19T02:33:58.343Z,0
2016-09-19T02:34:58.319Z,0
2016-09-19T02:35:58.297Z,0
2016-09-19T02:36:58.271Z,0
2016-09-19T02:37:58.253Z,0
2016-09-19T02:38:58.229Z,0
2016-09-19T02:39:58.502Z,0
2016-09-19T02:40:58.185Z,0
2016-09-19T02:41:58.166Z,0
2016-09-19T02:42:58.148Z,0
2016-09-19T02:43:58.118Z,0
2016-09-19T02:44:58.101Z,0
2016-09-19T02:45:58.073Z,0
2016-09-19T02:46:58.059Z,0
2016-09-19T02:47:58.032Z,0
2016-09-19T02:48:58.017Z,0
2016-09-19T02:49:57.986Z,0
2016-09-19T02:50:57.962Z,0
2016-09-19T02:51:57.943Z,0
2016-09-19T02:52:57.916Z,0
2016-09-19T02:53:57.893Z,0
2016-09-19T02:54:57.873Z,0
2016-09-19T02:55:57.855Z,0
2016-09-19T02:56:57.830Z,0
2016-09-19T02:57:57.803Z,0
2016-09-19T02:58:57.785Z,0
2016-09-19T02:59:57.762Z,0
2016-09-19T03:00:57.739Z,0
2016-09-19T03:01:58.020Z,0
2016-09-19T03:02:57.692Z,0
2016-09-19T03:03:57.674Z,0
2016-09-19T03:04:57.650Z,0
2016-09-19T03:05:57.627Z,0
2016-09-19T03:06:57.604Z,0
2016-09-19T03:07:57.581Z,0
2016-09-19T03:08:57.559Z,0
2016-09-19T03:09:57.538Z,0
2016-09-19T03:10:57.515Z,0
2016-09-19T03:11:57.494Z,0
2016-09-19T03:12:57.468Z,0
2016-09-19T03:13:57.446Z,0
2016-09-19T03:14:57.431Z,0
2016-09-19T03:15:57.407Z,0
2016-09-19T03:16:57.378Z,0
2016-09-19T03:17:57.360Z,0
2016-09-19T03:18:57.336Z,0
2016-09-19T03:19:57.308Z,0
2016-09-19T03:20:57.291Z,0
2016-09-19T03:21:57.266Z,0
2016-09-19T03:22:57.246Z,0
2016-09-19T03:23:57.223Z,0
2016-09-19T03:24:57.200Z,0
2016-09-19T03:25:57.182Z,0
2016-09-19T03:26:57.159Z,0
2016-09-19T03:27:57.142Z,0
2016-09-19T03:28:57.118Z,0
2016-09-19T03:29:57.085Z,0
2016-09-19T03:30:57.072Z,0
2016-09-19T03:31:57.046Z,0
2016-09-19T03:32:57.022Z,0
2016-09-19T03:33:57.003Z,0
2016-09-19T03:34:56.973Z,0
2016-09-19T03:35:56.953Z,0
2016-09-19T03:36:56.929Z,0
2016-09-19T03:37:56.912Z,0
2016-09-19T03:38:56.888Z,0
2016-09-19T03:39:56.865Z,0
2016-09-19T03:40:56.842Z,0
2016-09-19T03:41:56.823Z,0
2016-09-19T03:42:56.795Z,0
2016-09-19T03:43:56.769Z,0
2016-09-19T03:44:56.755Z,0
2016-09-19T03:45:56.736Z,0
2016-09-19T03:46:56.709Z,0
2016-09-19T03:47:56.680Z,0
2016-09-19T03:48:56.661Z,0
2016-09-19T03:49:56.651Z,0
2016-09-19T03:50:56.611Z,0
2016-09-19T03:51:56.592Z,0
2016-09-19T03:52:56.568Z,0
2016-09-19T03:53:56.545Z,0
2016-09-19T03:54:56.524Z,0
2016-09-19T03:55:56.496Z,0
2016-09-19T03:56:56.479Z,0
2016-09-19T03:57:56.451Z,0
2016-09-19T03:58:56.444Z,0
2016-09-19T03:59:56.412Z,0
2016-09-19T04:00:56.392Z,0
2016-09-19T04:01:56.364Z,0
2016-09-19T04:02:56.335Z,0
2016-09-19T04:03:56.322Z,0
2016-09-19T04:04:56.293Z,0
2016-09-19T04:05:56.277Z,0
2016-09-19T04:06:56.257Z,0
2016-09-19T04:07:56.234Z,0
2016-09-19T04:08:56.207Z,0
2016-09-19T04:09:56.178Z,0
2016-09-19T04:10:56.162Z,0
2016-09-19T04:11:56.139Z,0
2016-09-19T04:12:56.117Z,0
2016-09-19T04:13:56.094Z,0
2016-09-19T04:14:56.069Z,0
2016-09-19T04:15:56.052Z,0
2016-09-19T04:16:56.043Z,0
2016-09-19T04:17:56.016Z,0
2016-09-19T04:18:55.982Z,0
2016-09-19T04:19:55.961Z,0
2016-09-19T04:20:55.932Z,0
2016-09-19T04:21:56.208Z,0
2016-09-19T04:22:55.940Z,0
2016-09-19T04:23:55.871Z,0
2016-09-19T04:24:55.845Z,0
2016-09-19T04:25:55.823Z,0
2016-09-19T04:26:56.098Z,0
2016-09-19T04:27:55.778Z,0
2016-09-19T04:28:55.754Z,0
2016-09-19T04:29:55.730Z,0
2016-09-19T04:30:55.716Z,0
2016-09-19T04:31:55.692Z,0
2016-09-19T04:32:55.667Z,0
2016-09-19T04:33:55.639Z,0
2016-09-19T04:34:55.622Z,0
2016-09-19T04:35:55.594Z,0
2016-09-19T04:36:55.572Z,0
2016-09-19T04:37:55.548Z,0
2016-09-19T04:38:55.524Z,0
2016-09-19T04:39:55.508Z,0
2016-09-19T04:40:55.482Z,0
2016-09-19T04:41:55.460Z,0
2016-09-19T04:42:55.438Z,0
2016-09-19T04:43:55.421Z,4
2016-09-19T04:44:55.397Z,4
2016-09-19T04:45:55.368Z,0
2016-09-19T04:46:55.350Z,0
2016-09-19T04:47:55.321Z,4
2016-09-19T04:48:55.302Z,4
2016-09-19T04:49:55.284Z,4
2016-09-19T04:50:55.260Z,8
2016-09-19T04:51:55.234Z,8
2016-09-19T04:52:55.211Z,8
2016-09-19T04:53:55.196Z,12
2016-09-19T04:54:55.170Z,12
2016-09-19T04:55:55.141Z,12
2016-09-19T04:56:55.119Z,16
2016-09-19T04:57:55.098Z,20
2016-09-19T04:58:55.075Z,24
2016-09-19T04:59:55.050Z,28
2016-09-19T05:00:55.042Z,36
2016-09-19T05:01:55.011Z,36
2016-09-19T05:02:54.982Z,44
2016-09-19T05:03:54.960Z,52
2016-09-19T05:04:54.937Z,56
2016-09-19T05:05:54.921Z,64
2016-09-19T05:06:54.888Z,76
2016-09-19T05:07:54.868Z,84
2016-09-19T05:08:54.849Z,92
2016-09-19T05:09:54.825Z,104
2016-09-19T05:10:54.805Z,116
2016-09-19T05:11:54.778Z,128
2016-09-19T05:12:54.757Z,136
2016-09-19T05:13:54.741Z,152
2016-09-19T05:14:54.712Z,164
2016-09-19T05:15:54.704Z,176
2016-09-19T05:16:54.663Z,184
2016-09-19T05:17:54.644Z,200
2016-09-19T05:18:54.621Z,216
2016-09-19T05:19:54.599Z,228
2016-09-19T05:20:54.576Z,248
2016-09-19T05:21:54.560Z,268
2016-09-19T05:22:54.544Z,288
2016-09-19T05:23:54.510Z,312
2016-09-19T05:24:54.484Z,336
2016-09-19T05:25:54.460Z,356
2016-09-19T05:26:54.448Z,380
2016-09-19T05:27:54.418Z,404
2016-09-19T05:28:54.393Z,428
2016-09-19T05:29:54.367Z,456
2016-09-19T05:30:54.355Z,484
2016-09-19T05:31:54.332Z,512
2016-09-19T05:32:54.302Z,540
2016-09-19T05:33:54.278Z,560
2016-09-19T05:34:54.256Z,588
2016-09-19T05:35:54.233Z,620
2016-09-19T05:36:54.209Z,656
2016-09-19T05:37:54.187Z,688
2016-09-19T05:38:54.165Z,716
2016-09-19T05:39:54.149Z,748
2016-09-19T05:40:54.123Z,772
2016-09-19T05:41:54.093Z,804
2016-09-19T05:42:54.075Z,840
2016-09-19T05:43:54.053Z,880
2016-09-19T05:44:54.028Z,920
2016-09-19T05:45:54.006Z,960
2016-09-19T05:46:53.988Z,1004
2016-09-19T05:47:53.962Z,1048
2016-09-19T05:48:53.936Z,1096
2016-09-19T05:49:53.914Z,1148
2016-09-19T05:50:53.888Z,1192
2016-09-19T05:51:53.875Z,1240
2016-09-19T05:52:54.151Z,1288
2016-09-19T05:53:53.834Z,1344
2016-09-19T05:54:53.811Z,1420
2016-09-19T05:55:54.074Z,1504
2016-09-19T05:56:53.760Z,1596
2016-09-19T05:57:53.730Z,1688
2016-09-19T05:58:53.715Z,1768
2016-09-19T05:59:53.690Z,1836
2016-09-19T06:00:53.669Z,1900
2016-09-19T06:01:53.645Z,1964
2016-09-19T06:02:53.623Z,2028
2016-09-19T06:03:53.599Z,2092
2016-09-19T06:04:53.599Z,2156
2016-09-19T06:05:53.561Z,2224
2016-09-19T06:06:53.530Z,2284
2016-09-19T06:07:53.503Z,2336
2016-09-19T06:08:53.489Z,2380
2016-09-19T06:09:53.457Z,2416
2016-09-19T06:10:53.443Z,2464
2016-09-19T06:11:53.419Z,2524
2016-09-19T06:12:53.396Z,2592
2016-09-19T06:13:53.372Z,2672
2016-09-19T06:14:53.349Z,2768
2016-09-19T06:15:53.627Z,2868
2016-09-19T06:16:53.609Z,2972
2016-09-19T06:17:53.282Z,3068
2016-09-19T06:18:53.262Z,3168
2016-09-19T06:19:53.235Z,3284
2016-09-19T06:20:53.215Z,3416
2016-09-19T06:21:53.190Z,3556
2016-09-19T06:22:53.172Z,3688
2016-09-19T06:23:53.154Z,3820
2016-09-19T06:24:53.124Z,3944
2016-09-19T06:25:53.102Z,4060
2016-09-19T06:26:53.076Z,4172
2016-09-19T06:27:53.060Z,4264
2016-09-19T06:28:53.033Z,4340
2016-09-19T06:29:53.013Z,4420
2016-09-19T06:30:52.991Z,4540
2016-09-19T06:31:52.975Z,4700
2016-09-19T06:32:52.947Z,4864
2016-09-19T06:33:52.921Z,5040
2016-09-19T06:34:52.905Z,5192
2016-09-19T06:35:52.895Z,5328
2016-09-19T06:36:52.876Z,5448
2016-09-19T06:37:52.833Z,5576
2016-09-19T06:38:53.109Z,5720
2016-09-19T06:39:52.794Z,5860
2016-09-19T06:40:52.778Z,6028
2016-09-19T06:41:52.747Z,6176
2016-09-19T06:42:52.722Z,6300
2016-09-19T06:43:52.702Z,6392
2016-09-19T06:44:52.681Z,6464
2016-09-19T06:45:52.654Z,6512
2016-09-19T06:46:52.634Z,6584
2016-09-19T06:47:52.616Z,6676
2016-09-19T06:48:52.588Z,6776
2016-09-19T06:49:52.570Z,6864
2016-09-19T06:50:52.550Z,6928
2016-09-19T06:51:52.527Z,6992
2016-09-19T06:52:52.504Z,7072
2016-09-19T06:53:52.481Z,7168
2016-09-19T06:54:52.457Z,7260
2016-09-19T06:55:52.439Z,7364
2016-09-19T06:56:52.417Z,7500
2016-09-19T06:57:52.396Z,7660
2016-09-19T06:58:52.372Z,7856
2016-09-19T06:59:52.348Z,8084
2016-09-19T07:00:52.331Z,8352
2016-09-19T07:01:52.306Z,8628
2016-09-19T07:02:52.299Z,8904
2016-09-19T07:03:52.287Z,9156
2016-09-19T07:04:52.243Z,9360
2016-09-19T07:05:52.229Z,9520
2016-09-19T07:06:52.198Z,9644
2016-09-19T07:07:52.177Z,9740
2016-09-19T07:08:52.153Z,9824
2016-09-19T07:09:52.146Z,9904
2016-09-19T07:10:52.113Z,9976
2016-09-19T07:11:52.090Z,10068
2016-09-19T07:12:52.073Z,10136
2016-09-19T07:13:52.348Z,10224
2016-09-19T07:14:52.034Z,10336
2016-09-19T07:15:52.007Z,10456
2016-09-19T07:16:51.993Z,10600
2016-09-19T07:17:52.014Z,10732
2016-09-19T07:18:52.096Z,10820
2016-09-19T07:19:51.924Z,10852
2016-09-19T07:20:51.906Z,10904
2016-09-19T07:21:51.882Z,11024
2016-09-19T07:22:51.867Z,11252
2016-09-19T07:23:51.843Z,11500
2016-09-19T07:24:51.816Z,11780
2016-09-19T07:25:51.840Z,11976
2016-09-19T07:26:51.778Z,12076
2016-09-19T07:27:51.756Z,12116
2016-09-19T07:28:51.742Z,12092
2016-09-19T07:29:51.714Z,12088
2016-09-19T07:30:51.689Z,12100
2016-09-19T07:31:51.671Z,12156
2016-09-19T07:32:51.649Z,12188
2016-09-19T07:33:51.633Z,12288
2016-09-19T07:34:51.613Z,12360
2016-09-19T07:35:51.589Z,12404
2016-09-19T07:36:51.571Z,12428
2016-09-19T07:37:51.546Z,12516
2016-09-19T07:38:51.529Z,12684
2016-09-19T07:39:51.512Z,12852
2016-09-19T07:40:51.539Z,12952
2016-09-19T07:41:51.475Z,13036
2016-09-19T07:42:51.446Z,13092
2016-09-19T07:43:51.428Z,13192
2016-09-19T07:44:51.404Z,13328
2016-09-19T07:45:51.393Z,13492
2016-09-19T07:46:51.361Z,13768
2016-09-19T07:47:51.347Z,14120
2016-09-19T07:48:51.325Z,14524
2016-09-19T07:49:51.296Z,14908
2016-09-19T07:50:51.289Z,15264
2016-09-19T07:51:51.554Z,15572
2016-09-19T07:52:51.238Z,15732
2016-09-19T07:53:51.217Z,15864
2016-09-19T07:54:51.200Z,15980
2016-09-19T07:55:51.179Z,16156
2016-09-19T07:56:51.167Z,16284
2016-09-19T07:57:51.139Z,16424
2016-09-19T07:58:51.119Z,16464
2016-09-19T07:59:51.099Z,16532
2016-09-19T08:00:51.080Z,16580
2016-09-19T08:01:51.065Z,16424
2016-09-19T08:02:51.039Z,16364
2016-09-19T08:03:51.023Z,16348
2016-09-19T08:04:51.003Z,16508
2016-09-19T08:05:51.297Z,16712
2016-09-19T08:06:50.965Z,16956
2016-09-19T08:07:50.940Z,17108
2016-09-19T08:08:50.924Z,17216
2016-09-19T08:09:50.900Z,17536
2016-09-19T08:10:50.886Z,17632
2016-09-19T08:11:50.867Z,17696
2016-09-19T08:12:50.845Z,17760
2016-09-19T08:13:50.827Z,17792
2016-09-19T08:14:50.810Z,17952
2016-09-19T08:15:50.789Z,18080
2016-09-19T08:16:50.781Z,18304
2016-09-19T08:17:50.753Z,18496
2016-09-19T08:18:50.731Z,18624
2016-09-19T08:19:50.719Z,18624
2016-09-19T08:20:50.698Z,18656
2016-09-19T08:21:50.674Z,18784
2016-09-19T08:22:50.657Z,18816
2016-09-19T08:23:50.641Z,18944
2016-09-19T08:24:50.620Z,19104
2016-09-19T08:25:50.605Z,19168
2016-09-19T08:26:50.578Z,19232
2016-09-19T08:27:50.564Z,19200
2016-09-19T08:28:50.537Z,19072
2016-09-19T08:29:50.528Z,18848
2016-09-19T08:30:50.514Z,18624
2016-09-19T08:31:50.496Z,18496
2016-09-19T08:32:50.775Z,18432
2016-09-19T08:33:50.448Z,18432
2016-09-19T08:34:50.433Z,18432
2016-09-19T08:35:50.413Z,18400
2016-09-19T08:36:50.398Z,18432
2016-09-19T08:37:50.373Z,18464
2016-09-19T08:38:50.352Z,18560
2016-09-19T08:39:50.647Z,18752
2016-09-19T08:40:50.340Z,18816
2016-09-19T08:41:50.306Z,18912
2016-09-19T08:42:50.285Z,18880
2016-09-19T08:43:50.267Z,18880
2016-09-19T08:44:50.245Z,19008
2016-09-19T08:45:50.225Z,19232
2016-09-19T08:46:50.206Z,19488
2016-09-19T08:47:50.192Z,19712
2016-09-19T08:48:50.173Z,19968
2016-09-19T08:49:50.154Z,20224
2016-09-19T08:50:50.133Z,20480
2016-09-19T08:51:50.117Z,20736
2016-09-19T08:52:50.095Z,20960
2016-09-19T08:53:50.085Z,21088
2016-09-19T08:54:50.071Z,21184
2016-09-19T08:55:50.037Z,21312
2016-09-19T08:56:50.036Z,21536
2016-09-19T08:57:50.002Z,21760
2016-09-19T08:58:49.995Z,22016
2016-09-19T08:59:49.967Z,22304
2016-09-19T09:00:49.945Z,22592
2016-09-19T09:01:49.930Z,22880
2016-09-19T09:02:49.912Z,23232
2016-09-19T09:03:49.895Z,23680
2016-09-19T09:04:49.877Z,23968
2016-09-19T09:05:49.861Z,24224
2016-09-19T09:06:49.846Z,24320
2016-09-19T09:07:49.826Z,24256
2016-09-19T09:08:49.815Z,24064
2016-09-19T09:09:49.795Z,24000
2016-09-19T09:10:49.779Z,23904
2016-09-19T09:11:49.752Z,23808
2016-09-19T09:12:49.732Z,23616
2016-09-19T09:13:49.722Z,23392
2016-09-19T09:14:49.997Z,23136
2016-09-19T09:15:49.682Z,22848
2016-09-19T09:16:49.664Z,22624
2016-09-19T09:17:49.659Z,22496
2016-09-19T09:18:49.626Z,22368
2016-09-19T09:19:49.616Z,22368
2016-09-19T09:20:49.595Z,22176
2016-09-19T09:21:49.574Z,22048
2016-09-19T09:22:49.562Z,21696
2016-09-19T09:23:49.538Z,21312
2016-09-19T09:24:49.523Z,20960
2016-09-19T09:25:49.508Z,20544
2016-09-19T09:26:49.787Z,20064
2016-09-19T09:27:49.471Z,19776
2016-09-19T09:28:49.442Z,19264
2016-09-19T09:29:49.730Z,18720
2016-09-19T09:30:49.706Z,17748
2016-09-19T09:31:49.408Z,16788
2016-09-19T09:32:49.375Z,15556
2016-09-19T09:33:49.355Z,14120
2016-09-19T09:34:49.355Z,12924
2016-09-19T09:35:49.321Z,11816
2016-09-19T09:36:49.302Z,10956
2016-09-19T09:37:49.282Z,9752
2016-09-19T09:38:49.278Z,9460
2016-09-19T09:39:49.243Z,9116
2016-09-19T09:40:49.224Z,8340
2016-09-19T09:41:49.211Z,7840
2016-09-19T09:42:49.192Z,7876
2016-09-19T09:43:49.168Z,7584
2016-09-19T09:44:49.150Z,7052
2016-09-19T09:45:49.136Z,7272
2016-09-19T09:46:49.109Z,7264
2016-09-19T09:47:49.095Z,7228
2016-09-19T09:48:49.076Z,7432
2016-09-19T09:49:49.068Z,7560
2016-09-19T09:50:49.040Z,7868
2016-09-19T09:51:49.009Z,8184
2016-09-19T09:52:48.995Z,8248
2016-09-19T09:53:48.976Z,8132
2016-09-19T09:54:48.962Z,8068
2016-09-19T09:55:48.940Z,8160
2016-09-19T09:56:48.918Z,8336
2016-09-19T09:57:48.892Z,8616
2016-09-19T09:58:48.874Z,8584
2016-09-19T09:59:48.860Z,8828
2016-09-19T10:00:48.840Z,9024
2016-09-19T10:01:48.821Z,9528
2016-09-19T10:02:48.834Z,10116
2016-09-19T10:03:48.779Z,10576
2016-09-19T10:04:48.755Z,10604
2016-09-19T10:05:48.744Z,10844
2016-09-19T10:06:48.715Z,11188
2016-09-19T10:07:48.701Z,11044
2016-09-19T10:08:48.680Z,11552
2016-09-19T10:09:48.660Z,11888
2016-09-19T10:10:48.640Z,13640
2016-09-19T10:11:48.621Z,15116
2016-09-19T10:12:48.599Z,16520
2016-09-19T10:13:48.580Z,17840
2016-09-19T10:14:48.562Z,20064
2016-09-19T10:15:48.544Z,21792
2016-09-19T10:16:48.530Z,23392
2016-09-19T10:17:48.502Z,23264
2016-09-19T10:18:48.485Z,22304
2016-09-19T10:19:48.474Z,21056
2016-09-19T10:20:48.444Z,20736
2016-09-19T10:21:48.429Z,19712
2016-09-19T10:22:48.411Z,18432
2016-09-19T10:23:48.391Z,16808
2016-09-19T10:24:48.372Z,15752
2016-09-19T10:25:48.356Z,15076
2016-09-19T10:26:48.339Z,14156
2016-09-19T10:27:48.319Z,13328
2016-09-19T10:28:48.304Z,12564
2016-09-19T10:29:48.287Z,12636
2016-09-19T10:30:48.262Z,13152
2016-09-19T10:31:48.333Z,14020
2016-09-19T10:32:48.278Z,15072
2016-09-19T10:33:48.213Z,15676
2016-09-19T10:34:48.491Z,15804
2016-09-19T10:35:48.174Z,15720
2016-09-19T10:36:48.163Z,15956
2016-09-19T10:37:48.151Z,16156
2016-09-19T10:38:48.123Z,16032
2016-09-19T10:39:48.121Z,15844
2016-09-19T10:40:48.086Z,16016
2016-09-19T10:41:48.366Z,16368
2016-09-19T10:42:48.352Z,16588
2016-09-19T10:43:48.038Z,16756
2016-09-19T10:44:48.012Z,16888
2016-09-19T10:45:47.996Z,16948
2016-09-19T10:46:47.978Z,17024
2016-09-19T10:47:47.960Z,17276
2016-09-19T10:48:47.958Z,17704
2016-09-19T10:49:47.922Z,18496
2016-09-19T10:50:47.909Z,18944
2016-09-19T10:51:47.898Z,19264
2016-09-19T10:52:47.871Z,19360
2016-09-19T10:53:47.855Z,19360
2016-09-19T10:54:47.830Z,19584
2016-09-19T10:55:47.843Z,20192
2016-09-19T10:56:47.797Z,20960
2016-09-19T10:57:47.781Z,21056
2016-09-19T10:58:47.760Z,20576
2016-09-19T10:59:47.742Z,20192
2016-09-19T11:00:47.725Z,19520
2016-09-19T11:01:47.707Z,18720
2016-09-19T11:02:47.690Z,18176
2016-09-19T11:03:48.023Z,18272
2016-09-19T11:04:47.654Z,19136
2016-09-19T11:05:47.634Z,20224
2016-09-19T11:06:47.620Z,20640
2016-09-19T11:07:47.598Z,20320
2016-09-19T11:08:47.581Z,19968
2016-09-19T11:09:47.562Z,19776
2016-09-19T11:10:47.541Z,19552
2016-09-19T11:11:47.531Z,19616
2016-09-19T11:12:47.509Z,19616
2016-09-19T11:13:47.492Z,19392
2016-09-19T11:14:47.473Z,19232
2016-09-19T11:15:47.449Z,18848
2016-09-19T11:16:47.438Z,18528
2016-09-19T11:17:47.421Z,18528
2016-09-19T11:18:47.398Z,18944
2016-09-19T11:19:47.386Z,19840
2016-09-19T11:20:47.368Z,20576
2016-09-19T11:21:47.594Z,21184
2016-09-19T11:22:47.330Z,21632
2016-09-19T11:23:47.326Z,21824
2016-09-19T11:24:47.298Z,21952
2016-09-19T11:25:47.280Z,22080
2016-09-19T11:26:47.267Z,22176
2016-09-19T11:27:47.245Z,22496
2016-09-19T11:28:47.229Z,22624
2016-09-19T11:29:47.208Z,22784
2016-09-19T11:30:47.197Z,23040
2016-09-19T11:31:47.180Z,23328
2016-09-19T11:32:47.159Z,23328
2016-09-19T11:33:47.149Z,23008
2016-09-19T11:34:47.123Z,22592
2016-09-19T11:35:47.109Z,22176
2016-09-19T11:36:47.118Z,22048
2016-09-19T11:37:47.082Z,22176
2016-09-19T11:38:47.057Z,22240
2016-09-19T11:39:47.038Z,22112
2016-09-19T11:40:47.023Z,21824
2016-09-19T11:41:47.003Z,21376
2016-09-19T11:42:46.994Z,21088
2016-09-19T11:43:46.977Z,20672
2016-09-19T11:44:46.957Z,20352
2016-09-19T11:45:46.940Z,20320
2016-09-19T11:46:46.922Z,20352
2016-09-19T11:47:46.908Z,20352
2016-09-19T11:48:46.888Z,20320
2016-09-19T11:49:46.869Z,20128
2016-09-19T11:50:46.862Z,19968
2016-09-19T11:51:46.839Z,19776
2016-09-19T11:52:46.825Z,19872
2016-09-19T11:53:46.808Z,19840
2016-09-19T11:54:46.786Z,20160
2016-09-19T11:55:46.769Z,20576
2016-09-19T11:56:46.754Z,21024
2016-09-19T11:57:46.743Z,21344
2016-09-19T11:58:46.720Z,21216
2016-09-19T11:59:46.703Z,20896
2016-09-19T12:00:46.688Z,20288
2016-09-19T12:01:46.671Z,19872
2016-09-19T12:02:46.662Z,20032
2016-09-19T12:03:46.648Z,20224
2016-09-19T12:04:46.620Z,20640
2016-09-19T12:05:46.607Z,20960
2016-09-19T12:06:46.588Z,20992
2016-09-19T12:07:46.579Z,21600
2016-09-19T12:08:46.557Z,22528
2016-09-19T12:09:46.543Z,23488
2016-09-19T12:10:46.524Z,23872
2016-09-19T12:11:46.510Z,24320
2016-09-19T12:12:46.490Z,22848
2016-09-19T12:13:46.476Z,20704
2016-09-19T12:14:46.463Z,19296
2016-09-19T12:15:46.447Z,19136
2016-09-19T12:16:46.434Z,20512
2016-09-19T12:17:46.407Z,22912
2016-09-19T12:18:46.402Z,24768
2016-09-19T12:19:46.380Z,24576
2016-09-19T12:20:46.357Z,24032
2016-09-19T12:21:46.345Z,24128
2016-09-19T12:22:46.329Z,23968
2016-09-19T12:23:46.325Z,23872
2016-09-19T12:24:46.316Z,24096
2016-09-19T12:25:46.300Z,25088
2016-09-19T12:26:46.360Z,25376
2016-09-19T12:27:46.248Z,25408
2016-09-19T12:28:46.228Z,25152
2016-09-19T12:29:46.220Z,24864
2016-09-19T12:30:46.201Z,24160
2016-09-19T12:31:46.254Z,23680
2016-09-19T12:32:46.166Z,23264
2016-09-19T12:33:46.148Z,23264
2016-09-19T12:34:46.135Z,23424
2016-09-19T12:35:46.122Z,23360
2016-09-19T12:36:46.101Z,23232
2016-09-19T12:37:46.090Z,22528
2016-09-19T12:38:46.070Z,21536
2016-09-19T12:39:46.055Z,20512
2016-09-19T12:40:46.129Z,19232
2016-09-19T12:41:46.027Z,19072
2016-09-19T12:42:46.007Z,20608
2016-09-19T12:43:45.994Z,22944
2016-09-19T12:44:45.992Z,24064
2016-09-19T12:45:45.958Z,24992
2016-09-19T12:46:45.946Z,25824
2016-09-19T12:47:45.938Z,24896
2016-09-19T12:48:45.913Z,23680
2016-09-19T12:49:45.899Z,22624
2016-09-19T12:50:45.885Z,22464
2016-09-19T12:51:45.872Z,22592
2016-09-19T12:52:45.847Z,23648
2016-09-19T12:53:45.851Z,26080
2016-09-19T12:54:45.828Z,29152
2016-09-19T12:55:45.802Z,31456
2016-09-19T12:56:45.875Z,32384
2016-09-19T12:57:45.774Z,31584
2016-09-19T12:58:45.750Z,31488
2016-09-19T12:59:45.741Z,32160
2016-09-19T13:00:45.725Z,32064
2016-09-19T13:01:45.747Z,32000
2016-09-19T13:02:46.214Z,32352
2016-09-19T13:03:45.687Z,33376
2016-09-19T13:04:45.665Z,33664
2016-09-19T13:05:45.653Z,33376
2016-09-19T13:06:45.638Z,32640
2016-09-19T13:07:45.630Z,31616
2016-09-19T13:08:45.609Z,30752
2016-09-19T13:09:45.591Z,29280
2016-09-19T13:10:45.579Z,28416
2016-09-19T13:11:45.570Z,27744
2016-09-19T13:12:45.852Z,27552
2016-09-19T13:13:45.549Z,27840
2016-09-19T13:14:45.518Z,28192
2016-09-19T13:15:45.501Z,28064
2016-09-19T13:16:45.663Z,27616
2016-09-19T13:17:45.477Z,26880
2016-09-19T13:18:45.461Z,26144
2016-09-19T13:19:45.447Z,25600
2016-09-19T13:20:45.432Z,25376
2016-09-19T13:21:45.426Z,25280
2016-09-19T13:22:45.403Z,25184
2016-09-19T13:23:45.392Z,24736
2016-09-19T13:24:45.376Z,24160
2016-09-19T13:25:45.368Z,23424
2016-09-19T13:26:45.350Z,22272
2016-09-19T13:27:45.333Z,21376
2016-09-19T13:28:45.320Z,20960
2016-09-19T13:29:45.303Z,20928
2016-09-19T13:30:45.288Z,21056
2016-09-19T13:31:45.322Z,21408
2016-09-19T13:32:45.259Z,21824
2016-09-19T13:33:45.240Z,22112
2016-09-19T13:34:45.228Z,22400
2016-09-19T13:35:45.216Z,22720
2016-09-19T13:36:45.198Z,22976
2016-09-19T13:37:45.479Z,23232